sensor_id;sensor_type;location;lat;lon;timestamp;P1;durP1;ratioP1;P2;durP2;ratioP2
18411;SDS011;27097;51.738;19.472;2022-09-25T00:00:45;17.98;;;11.85;;
18411;SDS011;27097;51.738;19.472;2022-09-25T00:03:14;18.77;;;11.82;;
18411;SDS011;27097;51.738;19.472;2022-09-25T00:05:45;15.80;;;11.15;;
18411;SDS011;27097;51.738;19.472;2022-09-25T00:08:14;17.13;;;11.75;;
18411;SDS011;27097;51.738;19.472;2022-09-25T00:10:42;18.80;;;11.15;;
18411;SDS011;27097;51.738;19.472;2022-09-25T00:13:10;17.83;;;12.25;;
18411;SDS011;27097;51.738;19.472;2022-09-25T00:15:37;16.42;;;11.18;;
18411;SDS011;27097;51.738;19.472;2022-09-25T00:18:10;17.05;;;11.90;;
18411;SDS011;27097;51.738;19.472;2022-09-25T00:20:37;16.15;;;10.82;;
18411;SDS011;27097;51.738;19.472;2022-09-25T00:23:03;16.35;;;11.20;;
18411;SDS011;27097;51.738;19.472;2022-09-25T00:25:31;16.33;;;10.95;;
18411;SDS011;27097;51.738;19.472;2022-09-25T00:27:58;16.77;;;11.02;;
18411;SDS011;27097;51.738;19.472;2022-09-25T00:30:25;16.85;;;11.32;;
18411;SDS011;27097;51.738;19.472;2022-09-25T00:32:52;16.65;;;11.40;;
18411;SDS011;27097;51.738;19.472;2022-09-25T00:35:19;19.23;;;11.68;;
18411;SDS011;27097;51.738;19.472;2022-09-25T00:37:45;15.00;;;11.23;;
18411;SDS011;27097;51.738;19.472;2022-09-25T00:40:13;19.58;;;10.98;;
18411;SDS011;27097;51.738;19.472;2022-09-25T00:42:41;16.92;;;11.15;;
18411;SDS011;27097;51.738;19.472;2022-09-25T00:45:12;16.08;;;11.07;;
18411;SDS011;27097;51.738;19.472;2022-09-25T00:47:46;15.30;;;10.32;;
18411;SDS011;27097;51.738;19.472;2022-09-25T00:50:22;14.60;;;11.15;;
18411;SDS011;27097;51.738;19.472;2022-09-25T00:52:55;16.92;;;10.70;;
18411;SDS011;27097;51.738;19.472;2022-09-25T00:55:27;15.13;;;10.57;;
18411;SDS011;27097;51.738;19.472;2022-09-25T00:57:56;18.08;;;10.88;;
18411;SDS011;27097;51.738;19.472;2022-09-25T01:00:25;15.13;;;10.15;;
18411;SDS011;27097;51.738;19.472;2022-09-25T01:02:52;14.02;;;10.10;;
18411;SDS011;27097;51.738;19.472;2022-09-25T01:05:22;15.02;;;10.32;;
18411;SDS011;27097;51.738;19.472;2022-09-25T01:07:51;16.60;;;10.57;;
18411;SDS011;27097;51.738;19.472;2022-09-25T01:10:21;17.23;;;10.40;;
18411;SDS011;27097;51.738;19.472;2022-09-25T01:12:48;16.80;;;10.48;;
18411;SDS011;27097;51.738;19.472;2022-09-25T01:15:18;18.45;;;10.55;;
18411;SDS011;27097;51.738;19.472;2022-09-25T01:17:52;14.80;;;10.38;;
18411;SDS011;27097;51.738;19.472;2022-09-25T01:20:40;15.38;;;10.45;;
18411;SDS011;27097;51.738;19.472;2022-09-25T01:23:31;14.40;;;10.20;;
18411;SDS011;27097;51.738;19.472;2022-09-25T01:26:14;13.50;;;10.00;;
18411;SDS011;27097;51.738;19.472;2022-09-25T01:29:00;13.15;;;9.60;;
18411;SDS011;27097;51.738;19.472;2022-09-25T01:31:33;15.10;;;10.10;;
18411;SDS011;27097;51.738;19.472;2022-09-25T01:34:05;14.40;;;10.30;;
18411;SDS011;27097;51.738;19.472;2022-09-25T01:36:40;14.55;;;10.02;;
18411;SDS011;27097;51.738;19.472;2022-09-25T01:39:14;14.82;;;10.02;;
18411;SDS011;27097;51.738;19.472;2022-09-25T01:41:47;14.20;;;9.45;;
18411;SDS011;27097;51.738;19.472;2022-09-25T01:44:19;15.63;;;9.57;;
18411;SDS011;27097;51.738;19.472;2022-09-25T01:46:53;13.57;;;9.63;;
18411;SDS011;27097;51.738;19.472;2022-09-25T01:49:25;13.98;;;9.35;;
18411;SDS011;27097;51.738;19.472;2022-09-25T01:51:55;11.63;;;8.88;;
18411;SDS011;27097;51.738;19.472;2022-09-25T01:54:33;16.42;;;9.55;;
18411;SDS011;27097;51.738;19.472;2022-09-25T01:57:05;12.98;;;9.50;;
18411;SDS011;27097;51.738;19.472;2022-09-25T01:59:38;16.05;;;9.95;;
18411;SDS011;27097;51.738;19.472;2022-09-25T02:02:11;16.38;;;9.57;;
18411;SDS011;27097;51.738;19.472;2022-09-25T02:04:41;12.07;;;8.52;;
18411;SDS011;27097;51.738;19.472;2022-09-25T02:07:13;14.32;;;8.77;;
18411;SDS011;27097;51.738;19.472;2022-09-25T02:09:46;15.68;;;9.45;;
18411;SDS011;27097;51.738;19.472;2022-09-25T02:12:17;14.60;;;9.55;;
18411;SDS011;27097;51.738;19.472;2022-09-25T02:14:48;13.60;;;8.55;;
18411;SDS011;27097;51.738;19.472;2022-09-25T02:17:19;14.48;;;9.35;;
18411;SDS011;27097;51.738;19.472;2022-09-25T02:20:11;15.55;;;8.90;;
18411;SDS011;27097;51.738;19.472;2022-09-25T02:23:05;14.75;;;9.50;;
18411;SDS011;27097;51.738;19.472;2022-09-25T02:25:39;14.02;;;9.20;;
18411;SDS011;27097;51.738;19.472;2022-09-25T02:28:10;17.20;;;9.57;;
18411;SDS011;27097;51.738;19.472;2022-09-25T02:30:41;15.15;;;8.77;;
18411;SDS011;27097;51.738;19.472;2022-09-25T02:33:09;14.85;;;8.35;;
18411;SDS011;27097;51.738;19.472;2022-09-25T02:35:36;13.77;;;9.15;;
18411;SDS011;27097;51.738;19.472;2022-09-25T02:38:03;14.55;;;8.70;;
18411;SDS011;27097;51.738;19.472;2022-09-25T02:40:32;11.95;;;8.80;;
18411;SDS011;27097;51.738;19.472;2022-09-25T02:43:08;14.40;;;8.88;;
18411;SDS011;27097;51.738;19.472;2022-09-25T02:45:47;15.85;;;8.90;;
18411;SDS011;27097;51.738;19.472;2022-09-25T02:48:25;17.92;;;9.18;;
18411;SDS011;27097;51.738;19.472;2022-09-25T02:51:02;16.00;;;8.98;;
18411;SDS011;27097;51.738;19.472;2022-09-25T02:53:38;14.70;;;8.93;;
18411;SDS011;27097;51.738;19.472;2022-09-25T02:56:09;36.30;;;11.00;;
18411;SDS011;27097;51.738;19.472;2022-09-25T02:58:40;20.20;;;9.73;;
18411;SDS011;27097;51.738;19.472;2022-09-25T03:01:12;18.55;;;10.35;;
18411;SDS011;27097;51.738;19.472;2022-09-25T03:03:41;17.20;;;8.88;;
18411;SDS011;27097;51.738;19.472;2022-09-25T03:06:11;18.40;;;9.13;;
18411;SDS011;27097;51.738;19.472;2022-09-25T03:08:39;19.08;;;9.63;;
18411;SDS011;27097;51.738;19.472;2022-09-25T03:11:10;19.75;;;9.20;;
18411;SDS011;27097;51.738;19.472;2022-09-25T03:13:41;22.40;;;9.13;;
18411;SDS011;27097;51.738;19.472;2022-09-25T03:16:10;15.43;;;8.98;;
18411;SDS011;27097;51.738;19.472;2022-09-25T03:18:43;21.35;;;8.73;;
18411;SDS011;27097;51.738;19.472;2022-09-25T03:21:11;20.27;;;8.93;;
18411;SDS011;27097;51.738;19.472;2022-09-25T03:23:38;16.40;;;8.60;;
18411;SDS011;27097;51.738;19.472;2022-09-25T03:26:05;16.67;;;8.80;;
18411;SDS011;27097;51.738;19.472;2022-09-25T03:28:32;17.27;;;9.30;;
18411;SDS011;27097;51.738;19.472;2022-09-25T03:31:00;19.27;;;9.20;;
18411;SDS011;27097;51.738;19.472;2022-09-25T03:33:32;14.52;;;8.93;;
18411;SDS011;27097;51.738;19.472;2022-09-25T03:36:01;18.80;;;8.93;;
18411;SDS011;27097;51.738;19.472;2022-09-25T03:38:33;16.05;;;8.98;;
18411;SDS011;27097;51.738;19.472;2022-09-25T03:41:01;14.82;;;8.57;;
18411;SDS011;27097;51.738;19.472;2022-09-25T03:43:28;18.98;;;8.80;;
18411;SDS011;27097;51.738;19.472;2022-09-25T03:45:57;15.07;;;8.43;;
18411;SDS011;27097;51.738;19.472;2022-09-25T03:48:24;15.65;;;9.00;;
18411;SDS011;27097;51.738;19.472;2022-09-25T03:50:53;13.95;;;8.38;;
18411;SDS011;27097;51.738;19.472;2022-09-25T03:53:20;15.20;;;8.40;;
18411;SDS011;27097;51.738;19.472;2022-09-25T03:55:47;16.48;;;8.63;;
18411;SDS011;27097;51.738;19.472;2022-09-25T03:58:14;14.77;;;8.57;;
18411;SDS011;27097;51.738;19.472;2022-09-25T04:00:41;13.80;;;8.40;;
18411;SDS011;27097;51.738;19.472;2022-09-25T04:03:09;16.15;;;8.20;;
18411;SDS011;27097;51.738;19.472;2022-09-25T04:05:36;17.55;;;8.07;;
18411;SDS011;27097;51.738;19.472;2022-09-25T04:08:05;11.80;;;7.97;;
18411;SDS011;27097;51.738;19.472;2022-09-25T04:10:32;16.70;;;8.10;;
18411;SDS011;27097;51.738;19.472;2022-09-25T04:13:02;14.30;;;8.50;;
18411;SDS011;27097;51.738;19.472;2022-09-25T04:15:30;17.45;;;8.35;;
18411;SDS011;27097;51.738;19.472;2022-09-25T04:17:57;12.73;;;7.95;;
18411;SDS011;27097;51.738;19.472;2022-09-25T04:20:25;13.77;;;8.15;;
18411;SDS011;27097;51.738;19.472;2022-09-25T04:22:52;15.00;;;8.10;;
18411;SDS011;27097;51.738;19.472;2022-09-25T04:25:20;13.32;;;7.82;;
18411;SDS011;27097;51.738;19.472;2022-09-25T04:27:50;14.68;;;7.85;;
18411;SDS011;27097;51.738;19.472;2022-09-25T04:30:18;14.52;;;8.15;;
18411;SDS011;27097;51.738;19.472;2022-09-25T04:32:45;13.23;;;8.05;;
18411;SDS011;27097;51.738;19.472;2022-09-25T04:35:29;14.75;;;7.70;;
18411;SDS011;27097;51.738;19.472;2022-09-25T04:37:55;12.68;;;7.45;;
18411;SDS011;27097;51.738;19.472;2022-09-25T04:40:24;16.35;;;7.93;;
18411;SDS011;27097;51.738;19.472;2022-09-25T04:42:53;14.23;;;7.65;;
18411;SDS011;27097;51.738;19.472;2022-09-25T04:45:21;14.15;;;7.72;;
18411;SDS011;27097;51.738;19.472;2022-09-25T04:47:49;13.90;;;8.25;;
18411;SDS011;27097;51.738;19.472;2022-09-25T04:50:16;13.07;;;7.53;;
18411;SDS011;27097;51.738;19.472;2022-09-25T04:52:43;13.00;;;7.40;;
18411;SDS011;27097;51.738;19.472;2022-09-25T04:55:10;11.70;;;7.55;;
18411;SDS011;27097;51.738;19.472;2022-09-25T04:57:38;11.23;;;7.18;;
18411;SDS011;27097;51.738;19.472;2022-09-25T05:00:05;13.70;;;7.40;;
18411;SDS011;27097;51.738;19.472;2022-09-25T05:02:33;11.25;;;7.55;;
18411;SDS011;27097;51.738;19.472;2022-09-25T05:05:00;11.48;;;7.80;;
18411;SDS011;27097;51.738;19.472;2022-09-25T05:07:27;11.40;;;7.60;;
18411;SDS011;27097;51.738;19.472;2022-09-25T05:09:55;12.55;;;7.75;;
18411;SDS011;27097;51.738;19.472;2022-09-25T05:12:22;10.57;;;7.40;;
18411;SDS011;27097;51.738;19.472;2022-09-25T05:14:51;11.63;;;7.53;;
18411;SDS011;27097;51.738;19.472;2022-09-25T05:17:17;10.18;;;7.03;;
18411;SDS011;27097;51.738;19.472;2022-09-25T05:19:44;10.50;;;7.00;;
18411;SDS011;27097;51.738;19.472;2022-09-25T05:22:11;12.00;;;7.20;;
18411;SDS011;27097;51.738;19.472;2022-09-25T05:24:38;10.75;;;7.22;;
18411;SDS011;27097;51.738;19.472;2022-09-25T05:27:05;11.32;;;7.75;;
18411;SDS011;27097;51.738;19.472;2022-09-25T05:29:32;11.43;;;7.28;;
18411;SDS011;27097;51.738;19.472;2022-09-25T05:32:01;12.38;;;6.93;;
18411;SDS011;27097;51.738;19.472;2022-09-25T05:34:28;12.43;;;7.40;;
18411;SDS011;27097;51.738;19.472;2022-09-25T05:36:55;11.15;;;7.30;;
18411;SDS011;27097;51.738;19.472;2022-09-25T05:39:21;11.43;;;7.05;;
18411;SDS011;27097;51.738;19.472;2022-09-25T05:41:48;12.68;;;7.30;;
18411;SDS011;27097;51.738;19.472;2022-09-25T05:44:15;12.23;;;7.28;;
18411;SDS011;27097;51.738;19.472;2022-09-25T05:46:42;12.25;;;7.20;;
18411;SDS011;27097;51.738;19.472;2022-09-25T05:49:10;10.15;;;7.40;;
18411;SDS011;27097;51.738;19.472;2022-09-25T05:51:37;12.00;;;7.03;;
18411;SDS011;27097;51.738;19.472;2022-09-25T05:54:04;10.07;;;6.82;;
18411;SDS011;27097;51.738;19.472;2022-09-25T05:56:31;11.73;;;6.90;;
18411;SDS011;27097;51.738;19.472;2022-09-25T05:58:58;10.45;;;7.32;;
18411;SDS011;27097;51.738;19.472;2022-09-25T06:01:25;10.88;;;7.05;;
18411;SDS011;27097;51.738;19.472;2022-09-25T06:03:52;10.23;;;6.60;;
18411;SDS011;27097;51.738;19.472;2022-09-25T06:06:20;11.20;;;7.00;;
18411;SDS011;27097;51.738;19.472;2022-09-25T06:08:47;13.10;;;6.40;;
18411;SDS011;27097;51.738;19.472;2022-09-25T06:11:14;10.38;;;6.63;;
18411;SDS011;27097;51.738;19.472;2022-09-25T06:13:41;11.18;;;7.28;;
18411;SDS011;27097;51.738;19.472;2022-09-25T06:16:12;11.77;;;7.13;;
18411;SDS011;27097;51.738;19.472;2022-09-25T06:18:43;11.23;;;7.07;;
18411;SDS011;27097;51.738;19.472;2022-09-25T06:21:10;14.75;;;6.93;;
18411;SDS011;27097;51.738;19.472;2022-09-25T06:23:39;10.27;;;7.07;;
18411;SDS011;27097;51.738;19.472;2022-09-25T06:26:07;12.73;;;7.13;;
18411;SDS011;27097;51.738;19.472;2022-09-25T06:28:34;11.65;;;7.32;;
18411;SDS011;27097;51.738;19.472;2022-09-25T06:31:02;10.00;;;6.47;;
18411;SDS011;27097;51.738;19.472;2022-09-25T06:33:30;9.43;;;6.68;;
18411;SDS011;27097;51.738;19.472;2022-09-25T06:35:57;12.00;;;7.05;;
18411;SDS011;27097;51.738;19.472;2022-09-25T06:38:25;14.20;;;6.80;;
18411;SDS011;27097;51.738;19.472;2022-09-25T06:40:53;15.02;;;6.25;;
18411;SDS011;27097;51.738;19.472;2022-09-25T06:43:20;9.45;;;6.63;;
18411;SDS011;27097;51.738;19.472;2022-09-25T06:45:47;8.68;;;6.47;;
18411;SDS011;27097;51.738;19.472;2022-09-25T06:48:15;14.13;;;6.93;;
18411;SDS011;27097;51.738;19.472;2022-09-25T06:50:43;12.60;;;6.72;;
18411;SDS011;27097;51.738;19.472;2022-09-25T06:53:13;13.18;;;6.50;;
18411;SDS011;27097;51.738;19.472;2022-09-25T06:55:41;14.65;;;6.63;;
18411;SDS011;27097;51.738;19.472;2022-09-25T06:58:11;11.57;;;6.65;;
18411;SDS011;27097;51.738;19.472;2022-09-25T07:00:39;15.48;;;6.70;;
18411;SDS011;27097;51.738;19.472;2022-09-25T07:03:06;17.52;;;6.90;;
18411;SDS011;27097;51.738;19.472;2022-09-25T07:05:51;13.73;;;7.38;;
18411;SDS011;27097;51.738;19.472;2022-09-25T07:08:18;14.95;;;8.07;;
18411;SDS011;27097;51.738;19.472;2022-09-25T07:10:46;14.73;;;8.00;;
18411;SDS011;27097;51.738;19.472;2022-09-25T07:13:16;13.68;;;8.48;;
18411;SDS011;27097;51.738;19.472;2022-09-25T07:15:49;12.95;;;7.85;;
18411;SDS011;27097;51.738;19.472;2022-09-25T07:18:16;12.30;;;7.90;;
18411;SDS011;27097;51.738;19.472;2022-09-25T07:20:43;19.63;;;8.65;;
18411;SDS011;27097;51.738;19.472;2022-09-25T07:23:11;15.82;;;8.85;;
18411;SDS011;27097;51.738;19.472;2022-09-25T07:25:38;20.25;;;9.05;;
18411;SDS011;27097;51.738;19.472;2022-09-25T07:28:05;22.02;;;8.32;;
18411;SDS011;27097;51.738;19.472;2022-09-25T07:30:33;15.23;;;8.07;;
18411;SDS011;27097;51.738;19.472;2022-09-25T07:33:00;17.98;;;8.27;;
18411;SDS011;27097;51.738;19.472;2022-09-25T07:35:27;14.73;;;7.75;;
18411;SDS011;27097;51.738;19.472;2022-09-25T07:37:54;14.95;;;8.02;;
18411;SDS011;27097;51.738;19.472;2022-09-25T07:40:22;18.48;;;8.30;;
18411;SDS011;27097;51.738;19.472;2022-09-25T07:42:50;17.60;;;8.18;;
18411;SDS011;27097;51.738;19.472;2022-09-25T07:45:17;16.33;;;8.63;;
18411;SDS011;27097;51.738;19.472;2022-09-25T07:47:46;24.63;;;8.65;;
18411;SDS011;27097;51.738;19.472;2022-09-25T07:50:13;24.25;;;8.48;;
18411;SDS011;27097;51.738;19.472;2022-09-25T07:52:39;14.55;;;8.35;;
18411;SDS011;27097;51.738;19.472;2022-09-25T07:55:07;19.02;;;9.68;;
18411;SDS011;27097;51.738;19.472;2022-09-25T07:57:34;21.08;;;9.60;;
18411;SDS011;27097;51.738;19.472;2022-09-25T08:00:01;15.88;;;8.20;;
18411;SDS011;27097;51.738;19.472;2022-09-25T08:02:30;22.13;;;9.80;;
18411;SDS011;27097;51.738;19.472;2022-09-25T08:05:02;26.65;;;10.00;;
18411;SDS011;27097;51.738;19.472;2022-09-25T08:07:31;28.50;;;10.40;;
18411;SDS011;27097;51.738;19.472;2022-09-25T08:09:59;23.80;;;9.50;;
18411;SDS011;27097;51.738;19.472;2022-09-25T08:12:27;19.05;;;9.70;;
18411;SDS011;27097;51.738;19.472;2022-09-25T08:14:54;27.92;;;10.23;;
18411;SDS011;27097;51.738;19.472;2022-09-25T08:17:21;19.98;;;9.30;;
18411;SDS011;27097;51.738;19.472;2022-09-25T08:19:48;22.73;;;9.38;;
18411;SDS011;27097;51.738;19.472;2022-09-25T08:22:17;21.65;;;9.85;;
18411;SDS011;27097;51.738;19.472;2022-09-25T08:24:44;25.05;;;10.73;;
18411;SDS011;27097;51.738;19.472;2022-09-25T08:27:10;25.25;;;10.00;;
18411;SDS011;27097;51.738;19.472;2022-09-25T08:29:37;24.55;;;9.75;;
18411;SDS011;27097;51.738;19.472;2022-09-25T08:32:05;32.28;;;10.75;;
18411;SDS011;27097;51.738;19.472;2022-09-25T08:34:32;21.85;;;10.07;;
18411;SDS011;27097;51.738;19.472;2022-09-25T08:37:00;26.55;;;10.30;;
18411;SDS011;27097;51.738;19.472;2022-09-25T08:39:29;21.95;;;9.95;;
18411;SDS011;27097;51.738;19.472;2022-09-25T08:41:56;26.00;;;10.15;;
18411;SDS011;27097;51.738;19.472;2022-09-25T08:44:25;25.05;;;10.07;;
18411;SDS011;27097;51.738;19.472;2022-09-25T08:46:56;22.15;;;9.77;;
18411;SDS011;27097;51.738;19.472;2022-09-25T08:49:43;24.25;;;9.70;;
18411;SDS011;27097;51.738;19.472;2022-09-25T08:52:15;24.48;;;9.50;;
18411;SDS011;27097;51.738;19.472;2022-09-25T08:54:47;22.58;;;9.43;;
18411;SDS011;27097;51.738;19.472;2022-09-25T08:57:20;21.13;;;9.30;;
18411;SDS011;27097;51.738;19.472;2022-09-25T08:59:54;15.10;;;9.05;;
18411;SDS011;27097;51.738;19.472;2022-09-25T09:02:25;23.55;;;9.63;;
18411;SDS011;27097;51.738;19.472;2022-09-25T09:04:59;24.50;;;8.88;;
18411;SDS011;27097;51.738;19.472;2022-09-25T09:07:28;14.77;;;9.55;;
18411;SDS011;27097;51.738;19.472;2022-09-25T09:10:05;21.67;;;9.45;;
18411;SDS011;27097;51.738;19.472;2022-09-25T09:12:41;19.67;;;8.75;;
18411;SDS011;27097;51.738;19.472;2022-09-25T09:15:15;21.00;;;9.32;;
18411;SDS011;27097;51.738;19.472;2022-09-25T09:17:47;19.45;;;8.55;;
18411;SDS011;27097;51.738;19.472;2022-09-25T09:20:15;17.27;;;9.18;;
18411;SDS011;27097;51.738;19.472;2022-09-25T09:22:47;16.17;;;8.95;;
18411;SDS011;27097;51.738;19.472;2022-09-25T09:25:21;20.65;;;9.13;;
18411;SDS011;27097;51.738;19.472;2022-09-25T09:28:03;15.60;;;8.73;;
18411;SDS011;27097;51.738;19.472;2022-09-25T09:30:52;14.45;;;9.10;;
18411;SDS011;27097;51.738;19.472;2022-09-25T09:33:32;15.93;;;9.02;;
18411;SDS011;27097;51.738;19.472;2022-09-25T09:36:06;15.65;;;8.65;;
18411;SDS011;27097;51.738;19.472;2022-09-25T09:38:41;28.58;;;9.45;;
18411;SDS011;27097;51.738;19.472;2022-09-25T09:41:23;18.85;;;8.55;;
18411;SDS011;27097;51.738;19.472;2022-09-25T09:44:11;17.55;;;9.00;;
18411;SDS011;27097;51.738;19.472;2022-09-25T09:46:51;13.27;;;8.38;;
18411;SDS011;27097;51.738;19.472;2022-09-25T09:49:24;16.20;;;8.40;;
18411;SDS011;27097;51.738;19.472;2022-09-25T09:51:58;13.00;;;8.27;;
18411;SDS011;27097;51.738;19.472;2022-09-25T09:54:29;18.48;;;8.05;;
18411;SDS011;27097;51.738;19.472;2022-09-25T09:57:04;12.27;;;7.82;;
18411;SDS011;27097;51.738;19.472;2022-09-25T09:59:41;14.68;;;7.97;;
18411;SDS011;27097;51.738;19.472;2022-09-25T10:02:14;17.30;;;8.43;;
18411;SDS011;27097;51.738;19.472;2022-09-25T10:04:49;13.65;;;7.72;;
18411;SDS011;27097;51.738;19.472;2022-09-25T10:07:18;16.80;;;7.40;;
18411;SDS011;27097;51.738;19.472;2022-09-25T10:09:48;17.63;;;7.68;;
18411;SDS011;27097;51.738;19.472;2022-09-25T10:12:22;17.88;;;7.65;;
18411;SDS011;27097;51.738;19.472;2022-09-25T10:14:54;12.98;;;7.32;;
18411;SDS011;27097;51.738;19.472;2022-09-25T10:17:22;15.70;;;6.88;;
18411;SDS011;27097;51.738;19.472;2022-09-25T10:19:51;12.30;;;7.07;;
18411;SDS011;27097;51.738;19.472;2022-09-25T10:22:20;13.80;;;7.55;;
18411;SDS011;27097;51.738;19.472;2022-09-25T10:24:53;12.40;;;7.65;;
18411;SDS011;27097;51.738;19.472;2022-09-25T10:27:27;11.55;;;7.57;;
18411;SDS011;27097;51.738;19.472;2022-09-25T10:29:59;13.00;;;6.65;;
18411;SDS011;27097;51.738;19.472;2022-09-25T10:32:28;13.13;;;7.30;;
18411;SDS011;27097;51.738;19.472;2022-09-25T10:34:55;16.27;;;6.78;;
18411;SDS011;27097;51.738;19.472;2022-09-25T10:37:22;10.50;;;6.75;;
18411;SDS011;27097;51.738;19.472;2022-09-25T10:39:59;11.70;;;6.95;;
18411;SDS011;27097;51.738;19.472;2022-09-25T10:42:35;17.25;;;6.68;;
18411;SDS011;27097;51.738;19.472;2022-09-25T10:45:26;10.13;;;6.50;;
18411;SDS011;27097;51.738;19.472;2022-09-25T10:47:55;15.77;;;6.57;;
18411;SDS011;27097;51.738;19.472;2022-09-25T10:50:40;12.13;;;6.60;;
18411;SDS011;27097;51.738;19.472;2022-09-25T10:53:22;11.60;;;6.57;;
18411;SDS011;27097;51.738;19.472;2022-09-25T10:55:56;11.38;;;6.15;;
18411;SDS011;27097;51.738;19.472;2022-09-25T10:58:33;11.70;;;6.55;;
18411;SDS011;27097;51.738;19.472;2022-09-25T11:01:03;12.80;;;6.47;;
18411;SDS011;27097;51.738;19.472;2022-09-25T11:03:38;11.23;;;6.07;;
18411;SDS011;27097;51.738;19.472;2022-09-25T11:06:15;11.23;;;6.07;;
18411;SDS011;27097;51.738;19.472;2022-09-25T11:08:45;12.43;;;7.22;;
18411;SDS011;27097;51.738;19.472;2022-09-25T11:11:19;20.30;;;7.47;;
18411;SDS011;27097;51.738;19.472;2022-09-25T11:13:53;24.35;;;8.35;;
18411;SDS011;27097;51.738;19.472;2022-09-25T11:16:26;24.88;;;8.10;;
18411;SDS011;27097;51.738;19.472;2022-09-25T11:19:12;21.75;;;8.18;;
18411;SDS011;27097;51.738;19.472;2022-09-25T11:21:53;21.88;;;8.50;;
18411;SDS011;27097;51.738;19.472;2022-09-25T11:24:32;20.17;;;8.45;;
18411;SDS011;27097;51.738;19.472;2022-09-25T11:27:08;20.58;;;8.10;;
18411;SDS011;27097;51.738;19.472;2022-09-25T11:29:45;16.30;;;7.70;;
18411;SDS011;27097;51.738;19.472;2022-09-25T11:32:19;23.48;;;7.40;;
18411;SDS011;27097;51.738;19.472;2022-09-25T11:34:55;20.77;;;7.95;;
18411;SDS011;27097;51.738;19.472;2022-09-25T11:37:30;19.80;;;7.90;;
18411;SDS011;27097;51.738;19.472;2022-09-25T11:40:10;22.05;;;7.72;;
18411;SDS011;27097;51.738;19.472;2022-09-25T11:43:07;29.20;;;7.75;;
18411;SDS011;27097;51.738;19.472;2022-09-25T11:45:41;24.35;;;7.95;;
18411;SDS011;27097;51.738;19.472;2022-09-25T11:48:15;22.75;;;7.43;;
18411;SDS011;27097;51.738;19.472;2022-09-25T11:50:50;19.98;;;7.38;;
18411;SDS011;27097;51.738;19.472;2022-09-25T11:53:24;26.17;;;7.65;;
18411;SDS011;27097;51.738;19.472;2022-09-25T11:56:34;15.43;;;7.40;;
18411;SDS011;27097;51.738;19.472;2022-09-25T11:59:23;12.55;;;6.50;;
18411;SDS011;27097;51.738;19.472;2022-09-25T12:02:09;16.77;;;6.57;;
18411;SDS011;27097;51.738;19.472;2022-09-25T12:10:37;11.23;;;6.50;;
18411;SDS011;27097;51.738;19.472;2022-09-25T12:13:16;14.25;;;6.40;;
18411;SDS011;27097;51.738;19.472;2022-09-25T12:15:54;11.90;;;6.82;;
18411;SDS011;27097;51.738;19.472;2022-09-25T12:18:35;18.60;;;6.68;;
18411;SDS011;27097;51.738;19.472;2022-09-25T12:21:12;11.60;;;6.03;;
18411;SDS011;27097;51.738;19.472;2022-09-25T12:23:45;16.10;;;5.90;;
18411;SDS011;27097;51.738;19.472;2022-09-25T12:26:22;12.02;;;5.93;;
18411;SDS011;27097;51.738;19.472;2022-09-25T12:29:00;10.32;;;6.00;;
18411;SDS011;27097;51.738;19.472;2022-09-25T12:31:41;9.90;;;6.13;;
18411;SDS011;27097;51.738;19.472;2022-09-25T12:34:22;12.70;;;6.22;;
18411;SDS011;27097;51.738;19.472;2022-09-25T12:37:04;8.57;;;5.40;;
18411;SDS011;27097;51.738;19.472;2022-09-25T12:39:39;10.02;;;5.47;;
18411;SDS011;27097;51.738;19.472;2022-09-25T12:42:10;9.13;;;5.40;;
18411;SDS011;27097;51.738;19.472;2022-09-25T12:44:42;8.02;;;5.50;;
18411;SDS011;27097;51.738;19.472;2022-09-25T12:47:15;8.57;;;5.40;;
18411;SDS011;27097;51.738;19.472;2022-09-25T12:49:54;8.18;;;5.15;;
18411;SDS011;27097;51.738;19.472;2022-09-25T12:52:26;7.68;;;5.10;;
18411;SDS011;27097;51.738;19.472;2022-09-25T12:54:59;20.08;;;5.70;;
18411;SDS011;27097;51.738;19.472;2022-09-25T12:57:30;9.00;;;5.78;;
18411;SDS011;27097;51.738;19.472;2022-09-25T13:00:04;12.60;;;5.38;;
18411;SDS011;27097;51.738;19.472;2022-09-25T13:02:36;7.60;;;5.07;;
18411;SDS011;27097;51.738;19.472;2022-09-25T13:05:09;7.80;;;5.20;;
18411;SDS011;27097;51.738;19.472;2022-09-25T13:07:41;8.05;;;4.75;;
18411;SDS011;27097;51.738;19.472;2022-09-25T13:10:18;9.00;;;5.55;;
18411;SDS011;27097;51.738;19.472;2022-09-25T13:12:49;6.07;;;4.70;;
18411;SDS011;27097;51.738;19.472;2022-09-25T13:15:20;7.63;;;5.40;;
18411;SDS011;27097;51.738;19.472;2022-09-25T13:17:49;7.72;;;4.95;;
18411;SDS011;27097;51.738;19.472;2022-09-25T13:23:12;6.43;;;4.68;;
18411;SDS011;27097;51.738;19.472;2022-09-25T13:25:42;6.28;;;4.78;;
18411;SDS011;27097;51.738;19.472;2022-09-25T13:28:13;7.57;;;4.57;;
18411;SDS011;27097;51.738;19.472;2022-09-25T13:31:04;6.70;;;4.45;;
18411;SDS011;27097;51.738;19.472;2022-09-25T13:33:36;6.85;;;4.82;;
18411;SDS011;27097;51.738;19.472;2022-09-25T13:36:12;6.63;;;4.63;;
18411;SDS011;27097;51.738;19.472;2022-09-25T13:38:58;6.28;;;4.63;;
18411;SDS011;27097;51.738;19.472;2022-09-25T13:41:46;7.10;;;4.82;;
18411;SDS011;27097;51.738;19.472;2022-09-25T13:47:39;6.32;;;4.57;;
18411;SDS011;27097;51.738;19.472;2022-09-25T13:50:18;6.70;;;4.32;;
18411;SDS011;27097;51.738;19.472;2022-09-25T13:52:59;6.40;;;4.60;;
18411;SDS011;27097;51.738;19.472;2022-09-25T14:01:53;6.55;;;4.32;;
18411;SDS011;27097;51.738;19.472;2022-09-25T14:04:27;6.45;;;4.47;;
18411;SDS011;27097;51.738;19.472;2022-09-25T14:07:02;5.70;;;4.60;;
18411;SDS011;27097;51.738;19.472;2022-09-25T14:09:41;5.78;;;4.30;;
18411;SDS011;27097;51.738;19.472;2022-09-25T14:12:17;6.70;;;4.50;;
18411;SDS011;27097;51.738;19.472;2022-09-25T14:14:56;6.18;;;4.57;;
18411;SDS011;27097;51.738;19.472;2022-09-25T14:17:28;6.13;;;4.47;;
18411;SDS011;27097;51.738;19.472;2022-09-25T14:19:57;5.75;;;4.43;;
18411;SDS011;27097;51.738;19.472;2022-09-25T14:22:28;5.82;;;4.25;;
18411;SDS011;27097;51.738;19.472;2022-09-25T14:25:00;6.95;;;4.38;;
18411;SDS011;27097;51.738;19.472;2022-09-25T14:27:27;8.98;;;5.30;;
18411;SDS011;27097;51.738;19.472;2022-09-25T14:30:09;11.52;;;5.07;;
18411;SDS011;27097;51.738;19.472;2022-09-25T14:32:42;13.93;;;5.07;;
18411;SDS011;27097;51.738;19.472;2022-09-25T14:35:34;14.45;;;4.82;;
18411;SDS011;27097;51.738;19.472;2022-09-25T14:38:18;10.57;;;4.82;;
18411;SDS011;27097;51.738;19.472;2022-09-25T14:47:45;15.18;;;4.90;;
18411;SDS011;27097;51.738;19.472;2022-09-25T14:50:16;10.32;;;4.65;;
18411;SDS011;27097;51.738;19.472;2022-09-25T14:52:47;11.73;;;4.88;;
18411;SDS011;27097;51.738;19.472;2022-09-25T14:55:17;11.07;;;4.63;;
18411;SDS011;27097;51.738;19.472;2022-09-25T14:57:48;10.10;;;4.78;;
18411;SDS011;27097;51.738;19.472;2022-09-25T15:00:19;17.02;;;5.03;;
18411;SDS011;27097;51.738;19.472;2022-09-25T15:02:49;17.17;;;4.40;;
18411;SDS011;27097;51.738;19.472;2022-09-25T15:05:27;10.77;;;4.82;;
18411;SDS011;27097;51.738;19.472;2022-09-25T15:07:56;11.05;;;4.80;;
18411;SDS011;27097;51.738;19.472;2022-09-25T15:10:27;9.95;;;4.57;;
18411;SDS011;27097;51.738;19.472;2022-09-25T15:13:06;8.35;;;4.57;;